PST,Max TemperatureF,Mean TemperatureF,Min TemperatureF,Max Dew PointF,MeanDew PointF,Min DewpointF,Max Humidity, Mean Humidity, Min Humidity, Max Sea Level PressureIn, Mean Sea Level PressureIn, Min Sea Level PressureIn, Max VisibilityMiles, Mean VisibilityMiles, Min VisibilityMiles, Max Wind SpeedMPH, Mean Wind SpeedMPH, Max Gust SpeedMPH,PrecipitationIn, CloudCover, Events, WindDirDegrees
2012-11-1,60,56,52,52,51,49,97,87,72,30.02,29.85,29.72,10,10,6,12,4,17,0.34,8,Rain,155
2012-11-2,60,56,51,52,50,47,96,87,62,30.04,30.01,29.97,10,10,6,6,2,,0.19,7,Rain,139
2012-11-3,60,56,53,54,52,51,96,89,78,30.18,30.04,29.97,10,10,6,14,5,21,0.02,8,Rain,151
2012-11-4,64,60,55,59,55,53,97,90,75,30.26,30.21,30.18,10,8,3,14,4,22,0.17,8,Rain,161
2012-11-5,57,52,48,52,46,41,94,76,53,30.40,30.32,30.17,10,9,3,7,3,,0.05,6,Rain,13
2012-11-6,57,50,44,51,46,43,97,85,74,30.16,30.02,29.96,10,8,1,21,5,28,0.01,5,,171
2012-11-7,54,48,41,44,39,35,87,71,49,30.14,30.08,29.95,10,10,10,14,7,16,0.00,3,,158
2012-11-8,50,43,36,37,35,33,93,76,54,29.94,29.85,29.82,10,10,10,9,2,16,0.00,3,,7
2012-11-9,48,40,32,36,30,26,89,70,44,29.96,29.90,29.85,10,10,10,8,3,,0.00,1,,129
2012-11-10,46,38,30,31,27,21,89,70,39,30.23,30.12,29.97,10,10,9,8,4,,0.00,1,,138
2012-11-11,48,40,32,42,34,28,93,77,58,30.25,30.18,30.08,10,8,4,9,4,,0.55,7,Rain,136
2012-11-12,54,49,44,47,45,42,93,88,74,30.22,30.15,30.09,10,9,3,12,5,,0.13,7,Rain,149
2012-11-13,52,49,46,48,46,45,100,91,83,30.22,30.18,30.14,10,9,4,10,7,,0.19,8,Rain,143
2012-11-14,52,48,43,47,44,40,93,83,67,30.32,30.28,30.18,10,10,8,6,3,,0.00,6,,2
2012-11-15,48,42,37,43,39,36,100,88,68,30.28,30.11,29.95,10,8,0,9,2,,0.00,5,Fog,124
2012-11-16,48,40,35,45,39,36,100,92,77,29.95,29.87,29.70,10,5,0,10,4,,0.25,8,Fog-Rain,137
2012-11-17,53,48,43,46,42,37,90,81,66,29.71,29.60,29.48,10,10,6,14,5,23,0.20,7,Rain,163
2012-11-18,50,47,44,44,41,38,90,81,74,29.76,29.67,29.53,10,9,4,20,8,28,0.63,8,Rain,143
2012-11-19,55,52,48,51,47,42,93,84,69,29.69,29.52,29.37,10,7,2,18,10,33,2.49,7,Rain,154
2012-11-20,51,47,43,46,43,38,90,83,71,29.69,29.63,29.55,10,9,3,20,5,39,0.22,5,Rain,146
2012-11-21,46,44,39,41,39,36,89,80,73,30.30,29.92,29.53,10,10,7,17,9,28,0.52,6,Rain,172
2012-11-22,46,40,35,40,37,33,96,81,68,30.37,30.30,30.21,10,10,10,5,1,,0.02,6,Rain,128
2012-11-23,50,47,44,48,45,41,100,92,86,30.21,30.10,30.03,10,5,2,7,2,,0.95,8,Rain,143
2012-11-24,50,44,39,45,42,38,93,87,71,30.28,30.23,30.15,10,10,8,6,2,,0.00,6,Rain,154
2012-11-25,46,42,37,40,38,35,100,89,66,30.35,30.30,30.22,10,4,0,8,2,,0.00,4,Fog,2
2012-11-26,48,42,36,36,33,30,87,75,50,30.23,30.12,30.06,10,10,10,7,2,,0.00,1,,329
2012-11-27,48,41,34,38,35,32,92,80,66,30.09,30.01,29.89,10,10,8,7,2,,0.00,4,,312
2012-11-28,48,42,37,43,39,35,93,85,74,29.88,29.72,29.62,10,9,5,7,1,,0.12,6,Rain,144
2012-11-29,55,50,44,46,42,39,86,75,64,29.70,29.57,29.44,10,10,7,13,5,,0.11,7,Rain,136
2012-11-30,57,52,46,49,46,43,93,84,60,29.47,29.43,29.37,10,7,2,15,7,26,1.51,7,Rain,148